Time,TemperatureF,DewpointF,PressureIn,WindDirection,WindDirectionDegrees,WindSpeedMPH,WindSpeedGustMPH,Humidity,HourlyPrecipIn,Conditions,Clouds,dailyrainin,SolarRadiationWatts/m^2,SoftwareType,DateUTC
2013-01-31 00:00:00,36.0,32.5,29.21,SW,234,3.0,12.0,87,0.00,,-RA,0.33,0.00,VWS V14.01,2013-01-31 05:00:00,
2013-01-31 00:02:00,35.9,32.4,29.21,SW,222,2.0,7.0,87,0.00,,-RA,0.00,0.00,VWS V14.01,2013-01-31 05:02:00,
2013-01-31 00:07:00,35.9,32.4,29.21,SW,216,6.0,10.0,87,0.00,,-RA,0.00,0.00,VWS V14.01,2013-01-31 05:07:00,
2013-01-31 00:12:00,35.8,32.3,29.21,SW,217,7.0,7.0,87,0.00,,-RA,0.00,0.00,VWS V14.01,2013-01-31 05:12:00,
2013-01-31 00:17:00,35.8,32.3,29.22,WSW,241,1.0,10.0,87,0.00,,-RA,0.00,0.00,VWS V14.01,2013-01-31 05:17:00,
2013-01-31 00:22:00,35.8,32.0,29.22,SSW,198,10.0,11.0,86,0.00,,-RA,0.00,0.00,VWS V14.01,2013-01-31 05:22:00,
2013-01-31 00:27:00,35.8,31.7,29.22,WSW,241,6.0,11.0,85,0.00,,-RA,0.00,0.00,VWS V14.01,2013-01-31 05:27:00,
2013-01-31 00:32:00,35.9,31.2,29.23,WSW,247,2.0,13.0,83,0.00,,-RA,0.00,0.00,VWS V14.01,2013-01-31 05:32:00,
2013-01-31 00:37:00,36.0,31.0,29.23,SSW,213,2.0,14.0,82,0.00,,-RA,0.00,0.00,VWS V14.01,2013-01-31 05:37:00,
2013-01-31 00:42:00,36.0,30.8,29.23,SW,236,4.0,11.0,81,0.00,,-RA,0.00,0.00,VWS V14.01,2013-01-31 05:42:00,
2013-01-31 00:47:00,36.0,30.8,29.24,SW,232,5.0,11.0,81,0.00,,-RA,0.00,0.00,VWS V14.01,2013-01-31 05:47:00,
2013-01-31 00:52:00,35.8,30.2,29.24,SW,224,2.0,12.0,80,0.00,,-RA,0.00,0.00,VWS V14.01,2013-01-31 05:52:00,
2013-01-31 00:57:00,35.6,30.4,29.24,SW,234,7.0,12.0,81,0.00,,-RA,0.00,0.00,VWS V14.01,2013-01-31 05:57:00,
2013-01-31 01:02:00,35.3,30.1,29.26,West,268,5.0,7.0,81,0.00,,-RA,0.00,0.00,VWS V14.01,2013-01-31 06:02:00,
2013-01-31 01:07:00,35.2,30.0,29.26,SSW,196,3.0,10.0,81,0.00,,-RA,0.00,0.00,VWS V14.01,2013-01-31 06:07:00,
2013-01-31 01:12:00,35.2,30.0,29.26,NW,308,5.0,8.0,81,0.00,,-RA,0.00,0.00,VWS V14.01,2013-01-31 06:12:00,
2013-01-31 01:17:00,35.2,29.7,29.27,SSW,202,4.0,14.0,80,0.00,,-RA,0.00,0.00,VWS V14.01,2013-01-31 06:17:00,
2013-01-31 01:22:00,35.0,29.2,29.27,West,272,1.0,6.0,79,0.00,,-RA,0.00,0.00,VWS V14.01,2013-01-31 06:22:00,
2013-01-31 01:27:00,34.9,28.4,29.27,SW,223,3.0,10.0,77,0.00,,-RA,0.00,0.00,VWS V14.01,2013-01-31 06:27:00,
2013-01-31 01:32:00,34.9,28.4,29.28,WSW,240,3.0,8.0,77,0.00,,-RA,0.00,0.00,VWS V14.01,2013-01-31 06:32:00,
2013-01-31 01:37:00,34.7,27.9,29.28,SW,236,2.0,10.0,76,0.00,,-RA,0.00,0.00,VWS V14.01,2013-01-31 06:37:00,
2013-01-31 01:42:00,34.6,27.8,29.28,SW,234,7.0,12.0,76,0.00,,-RA,0.00,0.00,VWS V14.01,2013-01-31 06:42:00,
2013-01-31 01:47:00,34.4,27.3,29.29,SSE,154,7.0,12.0,75,0.00,,-RA,0.00,0.00,VWS V14.01,2013-01-31 06:47:00,
2013-01-31 01:52:00,34.3,27.5,29.29,NW,318,5.0,12.0,76,0.00,,-RA,0.00,0.00,VWS V14.01,2013-01-31 06:52:00,
2013-01-31 01:57:00,34.1,26.7,29.29,West,264,5.0,12.0,74,0.00,,-RA,0.00,0.00,VWS V14.01,2013-01-31 06:57:00,
2013-01-31 02:02:00,34.1,26.7,29.30,NNW,332,0.0,8.0,74,0.00,,,0.00,0.00,VWS V14.01,2013-01-31 07:02:00,
2013-01-31 02:07:00,33.8,25.7,29.30,SW,229,4.0,9.0,72,0.00,,,0.00,0.00,VWS V14.01,2013-01-31 07:07:00,
2013-01-31 02:12:00,33.8,25.7,29.30,NW,325,2.0,10.0,72,0.00,,,0.00,0.00,VWS V14.01,2013-01-31 07:12:00,
2013-01-31 02:17:00,33.5,25.5,29.32,North,0,0.0,11.0,72,0.00,,,0.00,0.00,VWS V14.01,2013-01-31 07:17:00,
2013-01-31 02:22:00,33.5,23.7,29.32,West,280,0.0,10.0,67,0.00,,,0.00,0.00,VWS V14.01,2013-01-31 07:22:00,
2013-01-31 02:27:00,33.5,23.7,29.32,NW,304,3.0,13.0,67,0.00,,,0.00,0.00,VWS V14.01,2013-01-31 07:27:00,
2013-01-31 02:32:00,33.4,24.0,29.33,SSE,161,12.0,15.0,68,0.00,,,0.00,0.00,VWS V14.01,2013-01-31 07:32:00,
2013-01-31 02:37:00,33.4,24.0,29.33,WSW,251,4.0,15.0,68,0.00,,,0.00,0.00,VWS V14.01,2013-01-31 07:37:00,
2013-01-31 02:42:00,33.2,23.8,29.33,WSW,243,3.0,13.0,68,0.00,,,0.00,0.00,VWS V14.01,2013-01-31 07:42:00,
2013-01-31 02:47:00,33.1,23.7,29.34,WNW,295,7.0,17.0,68,0.00,,,0.00,0.00,VWS V14.01,2013-01-31 07:47:00,
2013-01-31 02:52:00,33.1,23.4,29.34,SW,232,13.0,15.0,67,0.00,,,0.00,0.00,VWS V14.01,2013-01-31 07:52:00,
2013-01-31 02:57:00,33.1,22.3,29.34,North,350,1.0,19.0,64,0.00,,,0.00,0.00,VWS V14.01,2013-01-31 07:57:00,
2013-01-31 03:02:00,33.1,23.4,29.35,WNW,299,4.0,6.0,67,0.00,,,0.00,0.00,VWS V14.01,2013-01-31 08:02:00,
2013-01-31 03:07:00,32.9,22.8,29.35,South,175,6.0,10.0,66,0.00,,,0.00,0.00,VWS V14.01,2013-01-31 08:07:00,
2013-01-31 03:12:00,32.8,22.3,29.35,WNW,285,2.0,10.0,65,0.00,,,0.00,0.00,VWS V14.01,2013-01-31 08:12:00,
2013-01-31 03:17:00,32.8,22.3,29.36,SW,229,1.0,11.0,65,0.00,,,0.00,0.00,VWS V14.01,2013-01-31 08:17:00,
2013-01-31 03:22:00,32.7,22.2,29.36,WSW,239,2.0,11.0,65,0.00,,,0.00,0.00,VWS V14.01,2013-01-31 08:22:00,
2013-01-31 03:27:00,32.7,22.2,29.36,WSW,243,1.0,17.0,65,0.00,,,0.00,0.00,VWS V14.01,2013-01-31 08:27:00,
2013-01-31 03:32:00,32.5,22.1,29.36,WSW,243,4.0,5.0,65,0.00,,,0.00,0.00,VWS V14.01,2013-01-31 08:32:00,
2013-01-31 03:37:00,32.5,22.1,29.36,WSW,250,1.0,10.0,65,0.00,,,0.00,0.00,VWS V14.01,2013-01-31 08:37:00,
2013-01-31 03:42:00,32.4,21.6,29.36,SW,229,12.0,17.0,64,0.00,,,0.00,0.00,VWS V14.01,2013-01-31 08:42:00,
2013-01-31 03:47:00,32.4,22.0,29.37,WNW,292,10.0,17.0,65,0.00,,,0.00,0.00,VWS V14.01,2013-01-31 08:47:00,
2013-01-31 03:52:00,32.2,21.8,29.37,WSW,248,3.0,6.0,65,0.00,,,0.00,0.00,VWS V14.01,2013-01-31 08:52:00,
2013-01-31 03:57:00,32.2,22.5,29.37,West,265,0.0,11.0,67,0.00,,,0.00,0.00,VWS V14.01,2013-01-31 08:57:00,
2013-01-31 04:02:00,31.9,22.9,29.38,SW,223,1.0,8.0,69,0.00,,,0.00,0.00,VWS V14.01,2013-01-31 09:02:00,
2013-01-31 04:07:00,31.8,22.8,29.38,NW,305,2.0,8.0,69,0.00,,,0.00,0.00,VWS V14.01,2013-01-31 09:07:00,
2013-01-31 04:12:00,31.5,23.2,29.38,West,270,2.0,12.0,71,0.00,,,0.00,0.00,VWS V14.01,2013-01-31 09:12:00,
2013-01-31 04:17:00,30.6,24.3,29.39,WNW,298,2.0,17.0,77,0.00,,,0.00,0.00,VWS V14.01,2013-01-31 09:17:00,
2013-01-31 04:22:00,30.0,24.9,29.39,WNW,285,6.0,11.0,81,0.00,,,0.00,0.00,VWS V14.01,2013-01-31 09:22:00,
2013-01-31 04:27:00,29.8,24.7,29.39,WNW,284,10.0,17.0,81,0.00,,,0.00,0.00,VWS V14.01,2013-01-31 09:27:00,
2013-01-31 04:32:00,30.0,24.6,29.39,West,275,3.0,5.0,80,0.00,,,0.00,0.00,VWS V14.01,2013-01-31 09:32:00,
2013-01-31 04:37:00,30.1,23.8,29.39,WSW,248,2.0,6.0,77,0.00,,,0.00,0.00,VWS V14.01,2013-01-31 09:37:00,
2013-01-31 04:42:00,30.4,23.8,29.39,South,169,0.0,2.0,76,0.00,,,0.00,0.00,VWS V14.01,2013-01-31 09:42:00,
2013-01-31 04:47:00,30.6,23.3,29.40,WNW,284,0.0,7.0,74,0.00,,,0.00,0.00,VWS V14.01,2013-01-31 09:47:00,
2013-01-31 04:52:00,30.7,23.1,29.40,WSW,246,0.0,4.0,73,0.00,,,0.00,0.00,VWS V14.01,2013-01-31 09:52:00,
2013-01-31 04:57:00,30.7,23.4,29.40,SW,222,2.0,7.0,74,0.00,,,0.00,0.00,VWS V14.01,2013-01-31 09:57:00,
2013-01-31 05:02:00,30.6,23.3,29.41,NNW,344,12.0,12.0,74,0.00,,,0.00,0.00,VWS V14.01,2013-01-31 10:02:00,
2013-01-31 05:07:00,30.3,23.0,29.41,West,271,5.0,13.0,74,0.00,,,0.00,0.00,VWS V14.01,2013-01-31 10:07:00,
2013-01-31 05:12:00,29.7,22.1,29.41,WSW,251,1.0,14.0,73,0.00,,,0.00,0.00,VWS V14.01,2013-01-31 10:12:00,
2013-01-31 05:17:00,29.7,22.4,29.43,NW,306,8.0,14.0,74,0.00,,,0.00,0.00,VWS V14.01,2013-01-31 10:17:00,
2013-01-31 05:22:00,29.5,22.2,29.43,WSW,240,1.0,13.0,74,0.00,,,0.00,0.00,VWS V14.01,2013-01-31 10:22:00,
2013-01-31 05:27:00,29.4,22.1,29.43,WSW,237,1.0,13.0,74,0.00,,,0.00,0.00,VWS V14.01,2013-01-31 10:27:00,
2013-01-31 05:32:00,29.4,21.5,29.44,WSW,237,3.0,11.0,72,0.00,,,0.00,0.00,VWS V14.01,2013-01-31 10:32:00,
2013-01-31 05:37:00,29.3,21.4,29.44,SW,233,6.0,11.0,72,0.00,,,0.00,0.00,VWS V14.01,2013-01-31 10:37:00,
2013-01-31 05:42:00,29.0,21.1,29.44,WSW,246,13.0,14.0,72,0.00,,,0.00,0.00,VWS V14.01,2013-01-31 10:42:00,
2013-01-31 05:47:00,28.7,20.5,29.45,WSW,247,6.0,14.0,71,0.00,,,0.00,0.00,VWS V14.01,2013-01-31 10:47:00,
2013-01-31 05:52:00,28.5,20.3,29.45,SW,234,2.0,12.0,71,0.00,,,0.00,0.00,VWS V14.01,2013-01-31 10:52:00,
2013-01-31 05:57:00,28.4,20.2,29.45,WSW,239,2.0,13.0,71,0.00,,,0.00,0.00,VWS V14.01,2013-01-31 10:57:00,
2013-01-31 06:02:00,28.4,19.5,29.47,SW,216,1.0,12.0,69,0.00,,,0.00,0.00,VWS V14.01,2013-01-31 11:02:00,
2013-01-31 06:07:00,28.2,19.4,29.47,West,265,7.0,12.0,69,0.00,,,0.00,0.00,VWS V14.01,2013-01-31 11:07:00,
2013-01-31 06:12:00,28.2,19.0,29.47,SW,217,7.0,8.0,68,0.00,,,0.00,0.00,VWS V14.01,2013-01-31 11:12:00,
2013-01-31 06:17:00,28.1,18.6,29.48,SW,224,3.0,14.0,67,0.00,,,0.00,0.00,VWS V14.01,2013-01-31 11:17:00,
2013-01-31 06:22:00,28.2,18.7,29.48,WNW,296,0.0,8.0,67,0.00,,,0.00,0.00,VWS V14.01,2013-01-31 11:22:00,
2013-01-31 06:27:00,28.2,19.0,29.48,SW,224,2.0,10.0,68,0.00,,,0.00,0.00,VWS V14.01,2013-01-31 11:27:00,
2013-01-31 06:32:00,28.2,19.4,29.48,SW,220,2.0,11.0,69,0.00,,,0.00,0.00,VWS V14.01,2013-01-31 11:32:00,
2013-01-31 06:37:00,27.9,19.1,29.48,SW,229,1.0,13.0,69,0.00,,,0.00,0.00,VWS V14.01,2013-01-31 11:37:00,
2013-01-31 06:42:00,27.8,19.3,29.48,WSW,246,7.0,8.0,70,0.00,,,0.00,0.00,VWS V14.01,2013-01-31 11:42:00,
2013-01-31 06:47:00,27.6,20.1,29.50,WNW,299,3.0,8.0,73,0.00,,,0.00,0.00,VWS V14.01,2013-01-31 11:47:00,
2013-01-31 06:52:00,27.2,20.0,29.50,WSW,237,5.0,8.0,74,0.00,,,0.00,0.00,VWS V14.01,2013-01-31 11:52:00,
2013-01-31 06:57:00,27.0,19.8,29.50,WNW,299,0.0,8.0,74,0.00,,,0.00,0.00,VWS V14.01,2013-01-31 11:57:00,
2013-01-31 07:02:00,26.9,19.1,29.51,WSW,246,2.0,8.0,72,0.00,,,0.00,0.00,VWS V14.01,2013-01-31 12:02:00,
2013-01-31 07:07:00,26.9,19.1,29.51,SW,224,6.0,8.0,72,0.00,,,0.00,0.00,VWS V14.01,2013-01-31 12:07:00,
2013-01-31 07:12:00,26.9,17.8,29.51,WSW,250,2.0,11.0,68,0.00,,,0.00,0.00,VWS V14.01,2013-01-31 12:12:00,
2013-01-31 07:17:00,26.9,17.4,29.52,SSW,203,5.0,12.0,67,0.00,,,0.00,0.00,VWS V14.01,2013-01-31 12:17:00,
2013-01-31 07:22:00,26.9,18.1,29.52,NNW,330,6.0,18.0,69,0.00,,,0.00,0.00,VWS V14.01,2013-01-31 12:22:00,
2013-01-31 07:27:00,26.3,19.5,29.52,SW,233,5.0,18.0,75,0.00,,,0.00,0.00,VWS V14.01,2013-01-31 12:27:00,
2013-01-31 07:32:00,25.6,20.6,29.53,South,174,7.0,11.0,81,0.00,,,0.00,0.00,VWS V14.01,2013-01-31 12:32:00,
2013-01-31 07:37:00,25.3,20.9,29.53,West,267,0.0,11.0,83,0.00,,,0.00,0.00,VWS V14.01,2013-01-31 12:37:00,
2013-01-31 07:42:00,25.0,20.9,29.53,West,264,0.0,12.0,84,0.00,,,0.00,0.00,VWS V14.01,2013-01-31 12:42:00,
2013-01-31 07:47:00,25.0,19.7,29.55,WSW,243,4.0,13.0,80,0.00,,,0.00,0.00,VWS V14.01,2013-01-31 12:47:00,
2013-01-31 07:52:00,25.1,18.6,29.55,West,261,3.0,12.0,76,0.00,,,0.00,0.00,VWS V14.01,2013-01-31 12:52:00,
2013-01-31 07:57:00,25.3,17.5,29.55,SW,224,3.0,12.0,72,0.00,,,0.00,0.00,VWS V14.01,2013-01-31 12:57:00,
2013-01-31 08:02:00,25.4,17.3,29.55,WSW,240,3.0,3.0,71,0.00,,,0.00,5.00,VWS V14.01,2013-01-31 13:02:00,
2013-01-31 08:07:00,25.6,16.9,29.55,West,268,1.0,15.0,69,0.00,,,0.00,5.00,VWS V14.01,2013-01-31 13:07:00,
2013-01-31 08:12:00,25.6,16.2,29.55,WSW,241,5.0,17.0,67,0.00,,,0.00,5.00,VWS V14.01,2013-01-31 13:12:00,
2013-01-31 08:17:00,25.7,15.6,29.56,WSW,257,0.0,20.0,65,0.00,,,0.00,7.00,VWS V14.01,2013-01-31 13:17:00,
2013-01-31 08:22:00,25.7,15.2,29.56,WSW,247,0.0,8.0,64,0.00,,,0.00,14.00,VWS V14.01,2013-01-31 13:22:00,
2013-01-31 08:27:00,25.7,15.9,29.56,NW,325,8.0,10.0,66,0.00,,,0.00,19.00,VWS V14.01,2013-01-31 13:27:00,
2013-01-31 08:32:00,25.6,16.2,29.58,WNW,287,3.0,16.0,67,0.00,,,0.00,21.00,VWS V14.01,2013-01-31 13:32:00,
2013-01-31 08:37:00,25.4,16.3,29.58,NW,309,12.0,16.0,68,0.00,,,0.00,25.00,VWS V14.01,2013-01-31 13:37:00,
2013-01-31 08:42:00,25.3,16.2,29.58,SW,233,6.0,10.0,68,0.00,,,0.00,32.00,VWS V14.01,2013-01-31 13:42:00,
2013-01-31 08:47:00,25.1,16.4,29.58,West,281,0.0,10.0,69,0.00,,,0.00,32.00,VWS V14.01,2013-01-31 13:47:00,
2013-01-31 08:52:00,25.1,16.0,29.58,West,261,4.0,11.0,68,0.00,,,0.00,49.00,VWS V14.01,2013-01-31 13:52:00,
2013-01-31 08:57:00,25.1,16.0,29.58,SW,232,2.0,13.0,68,0.00,,,0.00,63.00,VWS V14.01,2013-01-31 13:57:00,
2013-01-31 09:02:00,25.1,15.7,29.59,WNW,284,0.0,5.0,67,0.00,,,0.00,53.00,VWS V14.01,2013-01-31 14:02:00,
2013-01-31 09:07:00,25.3,15.9,29.59,SW,232,0.0,5.0,67,0.00,,,0.00,56.00,VWS V14.01,2013-01-31 14:07:00,
2013-01-31 09:12:00,25.4,16.0,29.59,WSW,243,5.0,11.0,67,0.00,,,0.00,39.00,VWS V14.01,2013-01-31 14:12:00,
2013-01-31 09:17:00,25.4,16.0,29.61,WNW,285,0.0,11.0,67,0.00,,,0.00,44.00,VWS V14.01,2013-01-31 14:17:00,
2013-01-31 09:22:00,25.4,15.6,29.61,SW,226,4.0,13.0,66,0.00,,,0.00,63.00,VWS V14.01,2013-01-31 14:22:00,
2013-01-31 09:27:00,25.4,16.3,29.61,WSW,254,1.0,13.0,68,0.00,,,0.00,40.00,VWS V14.01,2013-01-31 14:27:00,
2013-01-31 09:32:00,25.4,18.0,29.61,SW,216,2.0,8.0,73,0.00,,,0.00,42.00,VWS V14.01,2013-01-31 14:32:00,
2013-01-31 09:37:00,25.3,18.2,29.61,SW,222,3.0,8.0,74,0.00,,,0.00,125.00,VWS V14.01,2013-01-31 14:37:00,
2013-01-31 09:42:00,25.4,18.3,29.61,SW,223,2.0,5.0,74,0.00,,,0.00,104.00,VWS V14.01,2013-01-31 14:42:00,
2013-01-31 09:47:00,25.3,18.2,29.62,SW,230,6.0,16.0,74,0.00,,,0.00,128.00,VWS V14.01,2013-01-31 14:47:00,
2013-01-31 09:52:00,25.1,18.6,29.62,WSW,247,4.0,7.0,76,0.00,,,0.00,111.00,VWS V14.01,2013-01-31 14:52:00,
2013-01-31 09:57:00,25.0,18.5,29.62,West,271,1.0,7.0,76,0.00,,,0.00,135.00,VWS V14.01,2013-01-31 14:57:00,
2013-01-31 10:02:00,25.1,18.6,29.62,WNW,298,2.0,9.0,76,0.00,,,0.00,146.00,VWS V14.01,2013-01-31 15:02:00,
2013-01-31 10:07:00,25.3,18.5,29.62,SW,234,5.0,9.0,75,0.00,,,0.00,144.00,VWS V14.01,2013-01-31 15:07:00,
2013-01-31 10:12:00,25.4,17.6,29.62,SSW,213,8.0,8.0,72,0.00,,,0.00,151.00,VWS V14.01,2013-01-31 15:12:00,
2013-01-31 10:17:00,25.6,17.2,29.63,WSW,246,2.0,11.0,70,0.00,,,0.00,132.00,VWS V14.01,2013-01-31 15:17:00,
2013-01-31 10:22:00,25.7,16.6,29.63,South,185,4.0,14.0,68,0.00,,,0.00,141.00,VWS V14.01,2013-01-31 15:22:00,
2013-01-31 10:27:00,26.0,16.2,29.63,SW,223,7.0,14.0,66,0.00,,,0.00,116.00,VWS V14.01,2013-01-31 15:27:00,
2013-01-31 10:32:00,26.0,16.2,29.64,West,268,0.0,6.0,66,0.00,,,0.00,153.00,VWS V14.01,2013-01-31 15:32:00,
2013-01-31 10:37:00,26.0,16.6,29.64,SW,226,11.0,11.0,67,0.00,,,0.00,72.00,VWS V14.01,2013-01-31 15:37:00,
2013-01-31 10:42:00,25.6,16.5,29.64,West,272,3.0,7.0,68,0.00,,,0.00,153.00,VWS V14.01,2013-01-31 15:42:00,
2013-01-31 10:47:00,25.4,15.6,29.65,WSW,241,9.0,16.0,66,0.00,,,0.00,164.00,VWS V14.01,2013-01-31 15:47:00,
2013-01-31 10:52:00,25.3,14.5,29.65,WSW,247,3.0,6.0,63,0.00,,,0.00,139.00,VWS V14.01,2013-01-31 15:52:00,
2013-01-31 10:57:00,25.4,15.3,29.65,WSW,248,6.0,13.0,65,0.00,,,0.00,162.00,VWS V14.01,2013-01-31 15:57:00,
2013-01-31 11:02:00,25.6,15.1,29.65,WSW,254,0.0,6.0,64,0.00,,,0.00,137.00,VWS V14.01,2013-01-31 16:02:00,
2013-01-31 11:07:00,25.6,15.1,29.65,SW,220,5.0,10.0,64,0.00,,,0.00,153.00,VWS V14.01,2013-01-31 16:07:00,
2013-01-31 11:12:00,25.4,15.6,29.65,WNW,291,3.0,10.0,66,0.00,,,0.00,102.00,VWS V14.01,2013-01-31 16:12:00,
2013-01-31 11:17:00,25.3,15.9,29.67,WNW,298,4.0,10.0,67,0.00,,,0.00,120.00,VWS V14.01,2013-01-31 16:17:00,
2013-01-31 11:22:00,25.1,15.4,29.67,WNW,289,3.0,6.0,66,0.00,,,0.00,139.00,VWS V14.01,2013-01-31 16:22:00,
2013-01-31 11:27:00,25.1,15.0,29.67,SW,236,3.0,12.0,65,0.00,,,0.00,139.00,VWS V14.01,2013-01-31 16:27:00,
2013-01-31 11:32:00,25.1,15.0,29.67,NW,323,0.0,17.0,65,0.00,,,0.00,172.00,VWS V14.01,2013-01-31 16:32:00,
2013-01-31 11:37:00,25.0,14.6,29.67,SW,226,6.0,17.0,64,0.00,,,0.00,150.00,VWS V14.01,2013-01-31 16:37:00,
2013-01-31 11:42:00,25.1,14.6,29.67,WSW,241,0.0,10.0,64,0.00,,,0.00,185.00,VWS V14.01,2013-01-31 16:42:00,
2013-01-31 11:47:00,25.1,14.6,29.68,WNW,288,0.0,10.0,64,0.00,,,0.00,158.00,VWS V14.01,2013-01-31 16:47:00,
2013-01-31 11:52:00,25.4,14.9,29.68,SW,216,0.0,8.0,64,0.00,,,0.00,183.00,VWS V14.01,2013-01-31 16:52:00,
2013-01-31 11:57:00,25.6,14.8,29.68,SW,223,0.0,11.0,63,0.00,,,0.00,169.00,VWS V14.01,2013-01-31 16:57:00,
2013-01-31 12:02:00,25.7,14.9,29.68,SW,224,6.0,6.0,63,0.00,,,0.00,216.00,VWS V14.01,2013-01-31 17:02:00,
2013-01-31 12:07:00,25.4,13.8,29.68,SE,136,8.0,8.0,61,0.00,,,0.00,190.00,VWS V14.01,2013-01-31 17:07:00,
2013-01-31 12:12:00,25.4,14.2,29.68,WSW,256,2.0,10.0,62,0.00,,,0.00,197.00,VWS V14.01,2013-01-31 17:12:00,
2013-01-31 12:17:00,25.1,13.9,29.69,SW,223,6.0,14.0,62,0.00,,,0.00,135.00,VWS V14.01,2013-01-31 17:17:00,
2013-01-31 12:22:00,25.0,14.6,29.69,SW,232,1.0,6.0,64,0.00,,,0.00,202.00,VWS V14.01,2013-01-31 17:22:00,
2013-01-31 12:27:00,24.8,14.0,29.69,SW,226,3.0,14.0,63,0.00,,,0.00,236.00,VWS V14.01,2013-01-31 17:27:00,
2013-01-31 12:32:00,25.3,15.2,29.69,SSW,195,5.0,5.0,65,0.00,,,0.00,234.00,VWS V14.01,2013-01-31 17:32:00,
2013-01-31 12:37:00,25.6,15.1,29.69,SW,232,3.0,12.0,64,0.00,,,0.00,225.00,VWS V14.01,2013-01-31 17:37:00,
2013-01-31 12:42:00,25.6,15.1,29.69,NW,320,4.0,11.0,64,0.00,,,0.00,215.00,VWS V14.01,2013-01-31 17:42:00,
2013-01-31 12:47:00,25.4,14.6,29.69,WSW,247,5.0,12.0,63,0.00,,,0.00,157.00,VWS V14.01,2013-01-31 17:47:00,
2013-01-31 12:52:00,25.0,13.5,29.69,SSW,192,11.0,11.0,61,0.00,,,0.00,201.00,VWS V14.01,2013-01-31 17:52:00,
2013-01-31 12:57:00,24.8,13.3,29.69,SW,236,2.0,13.0,61,0.00,,,0.00,160.00,VWS V14.01,2013-01-31 17:57:00,
2013-01-31 13:02:00,24.8,13.6,29.69,WSW,240,1.0,11.0,62,0.00,,,0.00,172.00,VWS V14.01,2013-01-31 18:02:00,
2013-01-31 13:07:00,24.8,12.9,29.69,WSW,244,2.0,14.0,60,0.00,,,0.00,84.00,VWS V14.01,2013-01-31 18:07:00,
2013-01-31 13:12:00,24.4,12.9,29.69,SW,217,11.0,11.0,61,0.00,,,0.00,63.00,VWS V14.01,2013-01-31 18:12:00,
2013-01-31 13:17:00,24.1,15.1,29.70,SW,233,2.0,11.0,68,0.00,,,0.00,77.00,VWS V14.01,2013-01-31 18:17:00,
2013-01-31 13:22:00,23.8,16.4,29.70,South,184,4.0,9.0,73,0.00,,,0.00,79.00,VWS V14.01,2013-01-31 18:22:00,
2013-01-31 13:27:00,23.3,16.2,29.70,SW,215,5.0,11.0,74,0.00,,,0.00,113.00,VWS V14.01,2013-01-31 18:27:00,
2013-01-31 13:32:00,23.2,16.5,29.71,SW,230,2.0,6.0,75,0.00,,,0.00,62.00,VWS V14.01,2013-01-31 18:32:00,
2013-01-31 13:37:00,23.0,16.9,29.71,SW,222,2.0,7.0,77,0.00,,,0.00,134.00,VWS V14.01,2013-01-31 18:37:00,
2013-01-31 13:42:00,22.7,16.9,29.71,SW,223,4.0,11.0,78,0.00,,,0.00,125.00,VWS V14.01,2013-01-31 18:42:00,
2013-01-31 13:47:00,22.7,17.2,29.70,SW,227,4.0,11.0,79,0.00,,,0.00,102.00,VWS V14.01,2013-01-31 18:47:00,
2013-01-31 13:52:00,22.9,16.8,29.70,SSW,196,7.0,7.0,77,0.00,,,0.00,100.00,VWS V14.01,2013-01-31 18:52:00,
2013-01-31 13:57:00,23.0,16.6,29.70,WNW,301,4.0,13.0,76,0.00,,,0.00,53.00,VWS V14.01,2013-01-31 18:57:00,
2013-01-31 14:02:00,22.9,16.5,29.71,SW,229,5.0,10.0,76,0.00,,,0.00,135.00,VWS V14.01,2013-01-31 19:02:00,
2013-01-31 14:07:00,22.9,16.2,29.71,SSE,161,2.0,10.0,75,0.00,,,0.00,137.00,VWS V14.01,2013-01-31 19:07:00,
2013-01-31 14:12:00,23.0,15.3,29.71,SW,229,1.0,8.0,72,0.00,,,0.00,109.00,VWS V14.01,2013-01-31 19:12:00,
2013-01-31 14:17:00,23.3,15.0,29.72,WSW,251,1.0,8.0,70,0.00,,,0.00,79.00,VWS V14.01,2013-01-31 19:17:00,
2013-01-31 14:22:00,23.5,13.8,29.72,West,261,8.0,14.0,66,0.00,,,0.00,90.00,VWS V14.01,2013-01-31 19:22:00,
2013-01-31 14:27:00,23.6,13.2,29.72,WNW,295,0.0,14.0,64,0.00,,,0.00,100.00,VWS V14.01,2013-01-31 19:27:00,
2013-01-31 14:32:00,23.9,13.5,29.72,WSW,250,5.0,5.0,64,0.00,,,0.00,91.00,VWS V14.01,2013-01-31 19:32:00,
2013-01-31 14:37:00,24.1,13.7,29.72,WNW,299,0.0,7.0,64,0.00,,,0.00,125.00,VWS V14.01,2013-01-31 19:37:00,
2013-01-31 14:42:00,24.2,13.4,29.72,SW,226,0.0,4.0,63,0.00,,,0.00,116.00,VWS V14.01,2013-01-31 19:42:00,
2013-01-31 14:47:00,24.7,13.9,29.72,WSW,239,0.0,5.0,63,0.00,,,0.00,81.00,VWS V14.01,2013-01-31 19:47:00,
2013-01-31 14:52:00,24.8,14.7,29.72,WSW,244,0.0,2.0,65,0.00,,,0.00,116.00,VWS V14.01,2013-01-31 19:52:00,
2013-01-31 14:57:00,24.8,15.4,29.72,SW,222,0.0,3.0,67,0.00,,,0.00,123.00,VWS V14.01,2013-01-31 19:57:00,
2013-01-31 15:02:00,24.8,16.8,29.73,SW,222,4.0,12.0,71,0.00,,,0.00,165.00,VWS V14.01,2013-01-31 20:02:00,
2013-01-31 15:07:00,24.5,16.8,29.73,SW,215,2.0,12.0,72,0.00,,,0.00,144.00,VWS V14.01,2013-01-31 20:07:00,
2013-01-31 15:12:00,24.5,17.1,29.73,SW,233,2.0,3.0,73,0.00,,,0.00,88.00,VWS V14.01,2013-01-31 20:12:00,
2013-01-31 15:17:00,24.4,17.3,29.72,WNW,291,8.0,8.0,74,0.00,,,0.00,86.00,VWS V14.01,2013-01-31 20:17:00,
2013-01-31 15:22:00,24.2,17.4,29.72,WNW,302,5.0,5.0,75,0.00,,,0.00,86.00,VWS V14.01,2013-01-31 20:22:00,
2013-01-31 15:27:00,24.1,17.6,29.72,WSW,243,0.0,7.0,76,0.00,,,0.00,65.00,VWS V14.01,2013-01-31 20:27:00,
2013-01-31 15:32:00,23.9,18.0,29.73,SSW,206,4.0,4.0,78,0.00,,,0.00,90.00,VWS V14.01,2013-01-31 20:32:00,
2013-01-31 15:37:00,23.9,18.6,29.73,West,278,1.0,8.0,80,0.00,,,0.00,90.00,VWS V14.01,2013-01-31 20:37:00,
2013-01-31 15:42:00,23.8,18.5,29.73,SSE,154,0.0,2.0,80,0.00,,,0.00,81.00,VWS V14.01,2013-01-31 20:42:00,
2013-01-31 15:47:00,23.8,17.7,29.73,WSW,250,0.0,6.0,77,0.00,,,0.00,62.00,VWS V14.01,2013-01-31 20:47:00,
2013-01-31 15:52:00,23.9,17.8,29.73,WSW,240,3.0,4.0,77,0.00,,,0.00,39.00,VWS V14.01,2013-01-31 20:52:00,
2013-01-31 15:57:00,23.9,17.5,29.73,WNW,294,1.0,5.0,76,0.00,,,0.00,49.00,VWS V14.01,2013-01-31 20:57:00,
2013-01-31 16:02:00,23.9,17.8,29.73,WNW,294,0.0,2.0,77,0.00,,,0.00,39.00,VWS V14.01,2013-01-31 21:02:00,
2013-01-31 16:07:00,23.8,18.0,29.73,WSW,248,2.0,10.0,78,0.00,,,0.00,49.00,VWS V14.01,2013-01-31 21:07:00,
2013-01-31 16:12:00,23.8,18.2,29.73,NW,308,0.0,5.0,79,0.00,,,0.00,63.00,VWS V14.01,2013-01-31 21:12:00,
2013-01-31 16:17:00,23.9,18.0,29.73,SSW,195,0.0,6.0,78,0.00,,,0.00,56.00,VWS V14.01,2013-01-31 21:17:00,
2013-01-31 16:22:00,24.1,18.0,29.73,WNW,295,2.0,2.0,77,0.00,,,0.00,60.00,VWS V14.01,2013-01-31 21:22:00,
2013-01-31 16:27:00,24.2,17.7,29.73,SW,216,2.0,5.0,76,0.00,,,0.00,55.00,VWS V14.01,2013-01-31 21:27:00,
2013-01-31 16:32:00,24.4,17.9,29.73,SW,215,1.0,1.0,76,0.00,,,0.00,48.00,VWS V14.01,2013-01-31 21:32:00,
2013-01-31 16:37:00,24.5,17.1,29.73,SW,236,6.0,6.0,73,0.00,,,0.00,48.00,VWS V14.01,2013-01-31 21:37:00,
2013-01-31 16:42:00,24.7,17.0,29.73,WSW,244,3.0,6.0,72,0.00,,,0.00,37.00,VWS V14.01,2013-01-31 21:42:00,
2013-01-31 16:47:00,25.0,16.9,29.73,SW,222,0.0,7.0,71,0.00,,,0.00,30.00,VWS V14.01,2013-01-31 21:47:00,
2013-01-31 16:52:00,25.1,15.7,29.73,WSW,246,1.0,7.0,67,0.00,,,0.00,26.00,VWS V14.01,2013-01-31 21:52:00,
2013-01-31 16:57:00,25.4,15.3,29.73,NW,305,1.0,8.0,65,0.00,,,0.00,35.00,VWS V14.01,2013-01-31 21:57:00,
2013-01-31 17:02:00,25.4,15.6,29.73,West,281,2.0,8.0,66,0.00,,,0.00,37.00,VWS V14.01,2013-01-31 22:02:00,
2013-01-31 17:07:00,25.4,15.6,29.73,SW,222,2.0,13.0,66,0.00,,,0.00,18.00,VWS V14.01,2013-01-31 22:07:00,
2013-01-31 17:12:00,25.4,16.3,29.73,WNW,282,0.0,5.0,68,0.00,,,0.00,11.00,VWS V14.01,2013-01-31 22:12:00,
2013-01-31 17:17:00,25.3,16.2,29.74,WSW,253,2.0,11.0,68,0.00,,,0.00,7.00,VWS V14.01,2013-01-31 22:17:00,
2013-01-31 17:22:00,25.1,16.0,29.74,WSW,243,0.0,6.0,68,0.00,,,0.00,14.00,VWS V14.01,2013-01-31 22:22:00,
2013-01-31 17:27:00,25.0,15.9,29.74,WNW,299,0.0,8.0,68,0.00,,,0.00,9.00,VWS V14.01,2013-01-31 22:27:00,
2013-01-31 17:32:00,25.0,15.9,29.74,WSW,246,2.0,5.0,68,0.00,,,0.00,5.00,VWS V14.01,2013-01-31 22:32:00,
2013-01-31 17:37:00,24.8,15.1,29.74,SSW,200,5.0,9.0,66,0.00,,,0.00,0.00,VWS V14.01,2013-01-31 22:37:00,
2013-01-31 17:42:00,25.0,15.6,29.74,SW,229,2.0,3.0,67,0.00,,,0.00,0.00,VWS V14.01,2013-01-31 22:42:00,
2013-01-31 17:47:00,24.8,15.4,29.75,SW,224,2.0,12.0,67,0.00,,,0.00,0.00,VWS V14.01,2013-01-31 22:47:00,
2013-01-31 17:52:00,24.7,16.6,29.75,SSW,203,4.0,5.0,71,0.00,,,0.00,0.00,VWS V14.01,2013-01-31 22:52:00,
2013-01-31 17:57:00,24.4,15.0,29.75,WSW,250,0.0,16.0,67,0.00,,,0.00,0.00,VWS V14.01,2013-01-31 22:57:00,
2013-01-31 18:02:00,24.2,13.1,29.75,NW,304,7.0,10.0,62,0.00,,,0.00,0.00,VWS V14.01,2013-01-31 23:02:00,
2013-01-31 18:07:00,24.4,11.8,29.75,NNW,336,2.0,13.0,58,0.00,,,0.00,0.00,VWS V14.01,2013-01-31 23:07:00,
2013-01-31 18:12:00,24.4,11.4,29.75,NW,318,2.0,4.0,57,0.00,,,0.00,0.00,VWS V14.01,2013-01-31 23:12:00,
2013-01-31 18:17:00,24.2,10.8,29.76,South,189,0.0,11.0,56,0.00,,,0.00,0.00,VWS V14.01,2013-01-31 23:17:00,
2013-01-31 18:22:00,24.1,10.7,29.76,SW,222,0.0,10.0,56,0.00,,,0.00,0.00,VWS V14.01,2013-01-31 23:22:00,
2013-01-31 18:27:00,24.1,11.1,29.76,SW,223,3.0,10.0,57,0.00,,,0.00,0.00,VWS V14.01,2013-01-31 23:27:00,
2013-01-31 18:32:00,24.1,11.5,29.77,West,267,1.0,9.0,58,0.00,,,0.00,0.00,VWS V14.01,2013-01-31 23:32:00,
2013-01-31 18:37:00,23.9,10.5,29.77,SW,223,6.0,12.0,56,0.00,,,0.00,0.00,VWS V14.01,2013-01-31 23:37:00,
2013-01-31 18:42:00,23.9,10.9,29.77,SW,223,5.0,10.0,57,0.00,,,0.00,0.00,VWS V14.01,2013-01-31 23:42:00,
2013-01-31 18:47:00,23.9,10.9,29.77,SW,229,3.0,10.0,57,0.00,,,0.00,0.00,VWS V14.01,2013-01-31 23:47:00,
2013-01-31 18:52:00,23.9,10.5,29.77,WNW,292,3.0,14.0,56,0.00,,,0.00,0.00,VWS V14.01,2013-01-31 23:52:00,
2013-01-31 18:57:00,23.9,10.9,29.77,SSW,193,3.0,14.0,57,0.00,,,0.00,0.00,VWS V14.01,2013-01-31 23:57:00,
2013-01-31 19:02:00,23.9,10.9,29.78,West,268,0.0,10.0,57,0.00,,,0.00,0.00,VWS V14.01,2013-02-01 00:02:00,
2013-01-31 19:07:00,23.9,10.9,29.78,WSW,258,1.0,12.0,57,0.00,,,0.00,0.00,VWS V14.01,2013-02-01 00:07:00,
2013-01-31 19:12:00,23.8,12.0,29.78,SSW,206,6.0,6.0,60,0.00,,,0.00,0.00,VWS V14.01,2013-02-01 00:12:00,
2013-01-31 19:17:00,23.8,12.7,29.79,WSW,243,0.0,6.0,62,0.00,,,0.00,0.00,VWS V14.01,2013-02-01 00:17:00,
2013-01-31 19:22:00,23.6,13.6,29.79,SSW,212,5.0,5.0,65,0.00,,,0.00,0.00,VWS V14.01,2013-02-01 00:22:00,
2013-01-31 19:28:00,23.5,14.5,29.79,West,278,0.0,7.0,68,0.00,,,0.00,0.00,VWS V14.01,2013-02-01 00:28:00,
2013-01-31 19:33:00,23.3,14.3,29.79,WSW,246,2.0,6.0,68,0.00,,,0.00,0.00,VWS V14.01,2013-02-01 00:33:00,
2013-01-31 19:38:00,23.2,14.2,29.79,NNW,333,5.0,7.0,68,0.00,,,0.00,0.00,VWS V14.01,2013-02-01 00:38:00,
2013-01-31 19:43:00,23.0,14.4,29.79,WSW,253,6.0,6.0,69,0.00,,,0.00,0.00,VWS V14.01,2013-02-01 00:43:00,
2013-01-31 19:48:00,23.0,14.4,29.80,SSW,209,3.0,7.0,69,0.00,,,0.00,0.00,VWS V14.01,2013-02-01 00:48:00,
2013-01-31 19:53:00,22.9,13.9,29.80,WSW,241,1.0,6.0,68,0.00,,,0.00,0.00,VWS V14.01,2013-02-01 00:53:00,
2013-01-31 19:58:00,22.7,13.4,29.80,West,263,1.0,6.0,67,0.00,,,0.00,0.00,VWS V14.01,2013-02-01 00:58:00,
2013-01-31 20:03:00,22.5,13.2,29.81,WNW,284,1.0,4.0,67,0.00,,,0.00,0.00,VWS V14.01,2013-02-01 01:03:00,
2013-01-31 20:08:00,22.5,13.2,29.81,WNW,295,2.0,7.0,67,0.00,,,0.00,0.00,VWS V14.01,2013-02-01 01:08:00,
2013-01-31 20:13:00,22.5,13.2,29.81,NW,304,1.0,10.0,67,0.00,,,0.00,0.00,VWS V14.01,2013-02-01 01:13:00,
2013-01-31 20:18:00,22.5,13.2,29.81,WSW,251,4.0,10.0,67,0.00,,,0.00,0.00,VWS V14.01,2013-02-01 01:18:00,
2013-01-31 20:23:00,22.4,13.8,29.81,SW,216,2.0,7.0,69,0.00,,,0.00,0.00,VWS V14.01,2013-02-01 01:23:00,
2013-01-31 20:28:00,21.9,14.9,29.81,West,275,0.0,7.0,74,0.00,,,0.00,0.00,VWS V14.01,2013-02-01 01:28:00,
2013-01-31 20:33:00,21.4,15.0,29.83,WNW,302,1.0,3.0,76,0.00,,,0.00,0.00,VWS V14.01,2013-02-01 01:33:00,
2013-01-31 20:38:00,21.1,15.3,29.83,WSW,239,0.0,4.0,78,0.00,,,0.00,0.00,VWS V14.01,2013-02-01 01:38:00,
2013-01-31 20:43:00,20.8,14.7,29.83,West,271,0.0,12.0,77,0.00,,,0.00,0.00,VWS V14.01,2013-02-01 01:43:00,
2013-01-31 20:48:00,20.8,14.4,29.83,WSW,247,6.0,12.0,76,0.00,,,0.00,0.00,VWS V14.01,2013-02-01 01:48:00,
2013-01-31 20:53:00,20.8,14.4,29.83,SSW,203,5.0,5.0,76,0.00,,,0.00,0.00,VWS V14.01,2013-02-01 01:53:00,
2013-01-31 20:58:00,20.8,14.1,29.83,SW,234,0.0,10.0,75,0.00,,,0.00,0.00,VWS V14.01,2013-02-01 01:58:00,
2013-01-31 21:03:00,20.8,13.8,29.83,South,191,3.0,6.0,74,0.00,,,0.00,0.00,VWS V14.01,2013-02-01 02:03:00,
2013-01-31 21:08:00,20.8,11.9,29.83,SW,224,5.0,10.0,68,0.00,,,0.00,0.00,VWS V14.01,2013-02-01 02:08:00,
2013-01-31 21:13:00,21.0,11.1,29.83,SW,230,1.0,7.0,65,0.00,,,0.00,0.00,VWS V14.01,2013-02-01 02:13:00,
2013-01-31 21:18:00,21.0,10.8,29.83,SW,215,0.0,7.0,64,0.00,,,0.00,0.00,VWS V14.01,2013-02-01 02:18:00,
2013-01-31 21:23:00,21.0,10.4,29.83,WSW,246,7.0,7.0,63,0.00,,,0.00,0.00,VWS V14.01,2013-02-01 02:23:00,
2013-01-31 21:28:00,20.8,10.2,29.83,SW,232,1.0,13.0,63,0.00,,,0.00,0.00,VWS V14.01,2013-02-01 02:28:00,
2013-01-31 21:33:00,20.6,9.7,29.84,West,263,3.0,7.0,62,0.00,,,0.00,0.00,VWS V14.01,2013-02-01 02:33:00,
2013-01-31 21:38:00,20.5,9.9,29.84,SW,222,2.0,7.0,63,0.00,,,0.00,0.00,VWS V14.01,2013-02-01 02:38:00,
2013-01-31 21:43:00,20.5,9.6,29.84,WSW,250,2.0,6.0,62,0.00,,,0.00,0.00,VWS V14.01,2013-02-01 02:43:00,
2013-01-31 21:48:00,20.3,9.4,29.84,West,267,0.0,7.0,62,0.00,,,0.00,0.00,VWS V14.01,2013-02-01 02:48:00,
2013-01-31 21:53:00,20.2,9.3,29.84,West,267,4.0,6.0,62,0.00,,,0.00,0.00,VWS V14.01,2013-02-01 02:53:00,
2013-01-31 21:58:00,20.2,9.3,29.84,SSW,203,0.0,7.0,62,0.00,,,0.00,0.00,VWS V14.01,2013-02-01 02:58:00,
2013-01-31 22:03:00,20.2,9.3,29.84,NW,313,3.0,5.0,62,0.00,,,0.00,0.00,VWS V14.01,2013-02-01 03:03:00,
2013-01-31 22:08:00,20.2,9.6,29.84,SSW,212,0.0,5.0,63,0.00,,,0.00,0.00,VWS V14.01,2013-02-01 03:08:00,
2013-01-31 22:13:00,20.2,9.3,29.84,WNW,284,0.0,5.0,62,0.00,,,0.00,0.00,VWS V14.01,2013-02-01 03:13:00,
2013-01-31 22:18:00,20.2,9.6,29.84,South,181,0.0,5.0,63,0.00,,,0.00,0.00,VWS V14.01,2013-02-01 03:18:00,
2013-01-31 22:23:00,20.2,9.3,29.84,WNW,284,0.0,1.0,62,0.00,,,0.00,0.00,VWS V14.01,2013-02-01 03:23:00,
2013-01-31 22:28:00,20.0,8.7,29.84,SW,217,0.0,4.0,61,0.00,,,0.00,0.00,VWS V14.01,2013-02-01 03:28:00,
2013-01-31 22:33:00,20.0,8.7,29.84,South,188,0.0,2.0,61,0.00,,,0.00,0.00,VWS V14.01,2013-02-01 03:33:00,
2013-01-31 22:38:00,19.9,8.3,29.84,SW,227,0.0,2.0,60,0.00,,,0.00,0.00,VWS V14.01,2013-02-01 03:38:00,
2013-01-31 22:43:00,19.9,8.6,29.84,WNW,288,1.0,7.0,61,0.00,,,0.00,0.00,VWS V14.01,2013-02-01 03:43:00,
2013-01-31 22:48:00,19.9,8.3,29.84,WNW,285,1.0,7.0,60,0.00,,,0.00,0.00,VWS V14.01,2013-02-01 03:48:00,
2013-01-31 22:53:00,19.9,7.9,29.84,West,278,0.0,3.0,59,0.00,,,0.00,0.00,VWS V14.01,2013-02-01 03:53:00,
2013-01-31 22:58:00,20.0,8.4,29.84,SW,219,0.0,3.0,60,0.00,,,0.00,0.00,VWS V14.01,2013-02-01 03:58:00,
2013-01-31 23:03:00,20.0,8.4,29.84,South,184,0.0,3.0,60,0.00,,,0.00,0.00,VWS V14.01,2013-02-01 04:03:00,
2013-01-31 23:08:00,20.0,8.7,29.84,WSW,239,0.0,6.0,61,0.00,,,0.00,0.00,VWS V14.01,2013-02-01 04:08:00,
2013-01-31 23:13:00,19.9,8.6,29.84,SSW,203,0.0,5.0,61,0.00,,,0.00,0.00,VWS V14.01,2013-02-01 04:13:00,
2013-01-31 23:18:00,19.7,8.4,29.84,SSW,213,2.0,6.0,61,0.00,,,0.00,0.00,VWS V14.01,2013-02-01 04:18:00,
2013-01-31 23:23:00,19.5,7.9,29.84,SW,222,1.0,4.0,60,0.00,,,0.00,0.00,VWS V14.01,2013-02-01 04:23:00,
2013-01-31 23:28:00,19.4,8.2,29.84,SW,223,0.0,4.0,61,0.00,,,0.00,0.00,VWS V14.01,2013-02-01 04:28:00,
2013-01-31 23:33:00,19.4,8.2,29.84,WSW,251,0.0,1.0,61,0.00,,,0.00,0.00,VWS V14.01,2013-02-01 04:33:00,
2013-01-31 23:38:00,19.4,8.2,29.84,WSW,244,1.0,4.0,61,0.00,,,0.00,0.00,VWS V14.01,2013-02-01 04:38:00,
2013-01-31 23:43:00,19.4,8.5,29.84,WNW,284,0.0,4.0,62,0.00,,,0.00,0.00,VWS V14.01,2013-02-01 04:43:00,
2013-01-31 23:48:00,19.4,8.2,29.83,NW,313,1.0,7.0,61,0.00,,,0.00,0.00,VWS V14.01,2013-02-01 04:48:00,
2013-01-31 23:53:00,19.4,8.2,29.83,NW,304,2.0,5.0,61,0.00,,,0.00,0.00,VWS V14.01,2013-02-01 04:53:00,
2013-01-31 23:58:00,19.4,8.2,29.83,WSW,251,0.0,5.0,61,0.00,,,0.00,0.00,VWS V14.01,2013-02-01 04:58:00,